sensor_id;sensor_type;location;lat;lon;timestamp;P1;durP1;ratioP1;P2;durP2;ratioP2
57249;SDS011;43102;52.014;-0.680;2023-02-28T00:00:00;6.70;;;4.00;;
57249;SDS011;43102;52.014;-0.680;2023-02-28T00:01:00;6.70;;;4.00;;
57249;SDS011;43102;52.014;-0.680;2023-02-28T00:02:00;6.70;;;4.00;;
57249;SDS011;43102;52.014;-0.680;2023-02-28T00:03:00;6.70;;;4.00;;
57249;SDS011;43102;52.014;-0.680;2023-02-28T00:04:00;6.70;;;4.00;;
57249;SDS011;43102;52.014;-0.680;2023-02-28T00:05:01;6.70;;;4.00;;
57249;SDS011;43102;52.014;-0.680;2023-02-28T00:06:02;6.70;;;4.00;;
57249;SDS011;43102;52.014;-0.680;2023-02-28T00:07:00;6.70;;;4.00;;
57249;SDS011;43102;52.014;-0.680;2023-02-28T00:08:00;6.70;;;4.00;;
57249;SDS011;43102;52.014;-0.680;2023-02-28T00:09:00;6.70;;;4.00;;
57249;SDS011;43102;52.014;-0.680;2023-02-28T00:10:00;10.10;;;4.00;;
57249;SDS011;43102;52.014;-0.680;2023-02-28T00:11:01;10.10;;;4.00;;
57249;SDS011;43102;52.014;-0.680;2023-02-28T00:12:09;10.10;;;4.00;;
57249;SDS011;43102;52.014;-0.680;2023-02-28T00:13:04;10.10;;;4.00;;
57249;SDS011;43102;52.014;-0.680;2023-02-28T00:14:00;10.10;;;4.00;;
57249;SDS011;43102;52.014;-0.680;2023-02-28T00:15:00;10.10;;;4.00;;
57249;SDS011;43102;52.014;-0.680;2023-02-28T00:16:04;10.10;;;4.00;;
57249;SDS011;43102;52.014;-0.680;2023-02-28T00:17:00;10.10;;;4.00;;
57249;SDS011;43102;52.014;-0.680;2023-02-28T00:18:01;10.10;;;4.00;;
57249;SDS011;43102;52.014;-0.680;2023-02-28T00:19:00;10.10;;;4.00;;
57249;SDS011;43102;52.014;-0.680;2023-02-28T00:20:02;10.10;;;4.00;;
57249;SDS011;43102;52.014;-0.680;2023-02-28T00:21:00;10.10;;;4.00;;
57249;SDS011;43102;52.014;-0.680;2023-02-28T00:22:00;10.10;;;4.00;;
57249;SDS011;43102;52.014;-0.680;2023-02-28T00:23:00;10.10;;;4.00;;
57249;SDS011;43102;52.014;-0.680;2023-02-28T00:24:00;10.10;;;4.00;;
57249;SDS011;43102;52.014;-0.680;2023-02-28T00:25:00;10.10;;;4.00;;
57249;SDS011;43102;52.014;-0.680;2023-02-28T00:26:01;10.10;;;4.00;;
57249;SDS011;43102;52.014;-0.680;2023-02-28T00:27:00;10.10;;;4.00;;
57249;SDS011;43102;52.014;-0.680;2023-02-28T00:28:00;10.10;;;4.00;;
57249;SDS011;43102;52.014;-0.680;2023-02-28T00:29:00;10.10;;;4.00;;
57249;SDS011;43102;52.014;-0.680;2023-02-28T00:30:00;10.10;;;4.00;;
57249;SDS011;43102;52.014;-0.680;2023-02-28T00:31:00;10.10;;;4.00;;
57249;SDS011;43102;52.014;-0.680;2023-02-28T00:32:01;10.10;;;4.00;;
57249;SDS011;43102;52.014;-0.680;2023-02-28T00:33:00;10.10;;;4.00;;
57249;SDS011;43102;52.014;-0.680;2023-02-28T00:34:00;10.10;;;4.00;;
57249;SDS011;43102;52.014;-0.680;2023-02-28T00:35:00;10.10;;;4.00;;
57249;SDS011;43102;52.014;-0.680;2023-02-28T00:36:04;10.10;;;4.00;;
57249;SDS011;43102;52.014;-0.680;2023-02-28T00:37:00;10.10;;;4.00;;
57249;SDS011;43102;52.014;-0.680;2023-02-28T00:38:00;10.10;;;4.00;;
57249;SDS011;43102;52.014;-0.680;2023-02-28T00:39:00;10.10;;;4.00;;
57249;SDS011;43102;52.014;-0.680;2023-02-28T00:40:01;7.50;;;4.40;;
57249;SDS011;43102;52.014;-0.680;2023-02-28T00:41:04;7.50;;;4.40;;
57249;SDS011;43102;52.014;-0.680;2023-02-28T00:42:00;7.50;;;4.40;;
57249;SDS011;43102;52.014;-0.680;2023-02-28T00:43:00;7.50;;;4.40;;
57249;SDS011;43102;52.014;-0.680;2023-02-28T00:44:00;7.50;;;4.40;;
57249;SDS011;43102;52.014;-0.680;2023-02-28T00:45:01;7.50;;;4.40;;
57249;SDS011;43102;52.014;-0.680;2023-02-28T00:46:01;7.50;;;4.40;;
57249;SDS011;43102;52.014;-0.680;2023-02-28T00:47:00;7.50;;;4.40;;
57249;SDS011;43102;52.014;-0.680;2023-02-28T00:48:00;7.50;;;4.40;;
57249;SDS011;43102;52.014;-0.680;2023-02-28T00:49:00;7.50;;;4.40;;
57249;SDS011;43102;52.014;-0.680;2023-02-28T00:50:00;7.50;;;4.40;;
57249;SDS011;43102;52.014;-0.680;2023-02-28T00:51:01;7.50;;;4.40;;
57249;SDS011;43102;52.014;-0.680;2023-02-28T00:52:00;7.50;;;4.40;;
57249;SDS011;43102;52.014;-0.680;2023-02-28T00:53:00;7.50;;;4.40;;
57249;SDS011;43102;52.014;-0.680;2023-02-28T00:54:00;7.50;;;4.40;;
57249;SDS011;43102;52.014;-0.680;2023-02-28T00:55:00;7.50;;;4.40;;
57249;SDS011;43102;52.014;-0.680;2023-02-28T00:56:00;7.50;;;4.40;;
57249;SDS011;43102;52.014;-0.680;2023-02-28T00:57:00;7.50;;;4.40;;
57249;SDS011;43102;52.014;-0.680;2023-02-28T00:58:00;7.50;;;4.40;;
57249;SDS011;43102;52.014;-0.680;2023-02-28T00:59:00;7.50;;;4.40;;
57249;SDS011;43102;52.014;-0.680;2023-02-28T01:00:00;7.50;;;4.40;;
57249;SDS011;43102;52.014;-0.680;2023-02-28T01:01:00;7.50;;;4.40;;
57249;SDS011;43102;52.014;-0.680;2023-02-28T01:02:00;7.50;;;4.40;;
57249;SDS011;43102;52.014;-0.680;2023-02-28T01:03:00;7.50;;;4.40;;
57249;SDS011;43102;52.014;-0.680;2023-02-28T01:04:00;7.50;;;4.40;;
57249;SDS011;43102;52.014;-0.680;2023-02-28T01:05:00;7.50;;;4.40;;
57249;SDS011;43102;52.014;-0.680;2023-02-28T01:06:00;7.50;;;4.40;;
57249;SDS011;43102;52.014;-0.680;2023-02-28T01:07:00;7.50;;;4.40;;
57249;SDS011;43102;52.014;-0.680;2023-02-28T01:08:00;7.50;;;4.40;;
57249;SDS011;43102;52.014;-0.680;2023-02-28T01:09:00;7.50;;;4.40;;
57249;SDS011;43102;52.014;-0.680;2023-02-28T01:10:00;7.50;;;4.30;;
57249;SDS011;43102;52.014;-0.680;2023-02-28T01:11:08;7.50;;;4.30;;
57249;SDS011;43102;52.014;-0.680;2023-02-28T01:12:00;7.50;;;4.30;;
57249;SDS011;43102;52.014;-0.680;2023-02-28T01:13:00;7.50;;;4.30;;
57249;SDS011;43102;52.014;-0.680;2023-02-28T01:14:01;7.50;;;4.30;;
57249;SDS011;43102;52.014;-0.680;2023-02-28T01:15:00;7.50;;;4.30;;
57249;SDS011;43102;52.014;-0.680;2023-02-28T01:16:00;7.50;;;4.30;;
57249;SDS011;43102;52.014;-0.680;2023-02-28T01:17:00;7.50;;;4.30;;
57249;SDS011;43102;52.014;-0.680;2023-02-28T01:18:00;7.50;;;4.30;;
57249;SDS011;43102;52.014;-0.680;2023-02-28T01:19:00;7.50;;;4.30;;
57249;SDS011;43102;52.014;-0.680;2023-02-28T01:20:00;7.50;;;4.30;;
57249;SDS011;43102;52.014;-0.680;2023-02-28T01:21:05;7.50;;;4.30;;
57249;SDS011;43102;52.014;-0.680;2023-02-28T01:22:02;7.50;;;4.30;;
57249;SDS011;43102;52.014;-0.680;2023-02-28T01:23:00;7.50;;;4.30;;
57249;SDS011;43102;52.014;-0.680;2023-02-28T01:24:00;7.50;;;4.30;;
57249;SDS011;43102;52.014;-0.680;2023-02-28T01:25:00;7.50;;;4.30;;
57249;SDS011;43102;52.014;-0.680;2023-02-28T01:26:11;7.50;;;4.30;;
57249;SDS011;43102;52.014;-0.680;2023-02-28T01:27:00;7.50;;;4.30;;
57249;SDS011;43102;52.014;-0.680;2023-02-28T01:28:00;7.50;;;4.30;;
57249;SDS011;43102;52.014;-0.680;2023-02-28T01:29:00;7.50;;;4.30;;
57249;SDS011;43102;52.014;-0.680;2023-02-28T01:30:00;7.50;;;4.30;;
57249;SDS011;43102;52.014;-0.680;2023-02-28T01:31:01;7.50;;;4.30;;
57249;SDS011;43102;52.014;-0.680;2023-02-28T01:32:00;7.50;;;4.30;;
57249;SDS011;43102;52.014;-0.680;2023-02-28T01:33:00;7.50;;;4.30;;
57249;SDS011;43102;52.014;-0.680;2023-02-28T01:34:01;7.50;;;4.30;;
57249;SDS011;43102;52.014;-0.680;2023-02-28T01:35:00;7.50;;;4.30;;
57249;SDS011;43102;52.014;-0.680;2023-02-28T01:36:04;7.50;;;4.30;;
57249;SDS011;43102;52.014;-0.680;2023-02-28T01:37:01;7.50;;;4.30;;
57249;SDS011;43102;52.014;-0.680;2023-02-28T01:38:10;7.50;;;4.30;;
57249;SDS011;43102;52.014;-0.680;2023-02-28T01:39:00;7.50;;;4.30;;
57249;SDS011;43102;52.014;-0.680;2023-02-28T01:40:00;7.00;;;4.20;;
57249;SDS011;43102;52.014;-0.680;2023-02-28T01:41:00;7.00;;;4.20;;
57249;SDS011;43102;52.014;-0.680;2023-02-28T01:42:00;7.00;;;4.20;;
57249;SDS011;43102;52.014;-0.680;2023-02-28T01:43:00;7.00;;;4.20;;
57249;SDS011;43102;52.014;-0.680;2023-02-28T01:44:04;7.00;;;4.20;;
57249;SDS011;43102;52.014;-0.680;2023-02-28T01:45:06;7.00;;;4.20;;
57249;SDS011;43102;52.014;-0.680;2023-02-28T01:46:00;7.00;;;4.20;;
57249;SDS011;43102;52.014;-0.680;2023-02-28T01:47:00;7.00;;;4.20;;
57249;SDS011;43102;52.014;-0.680;2023-02-28T01:48:05;7.00;;;4.20;;
57249;SDS011;43102;52.014;-0.680;2023-02-28T01:49:05;7.00;;;4.20;;
57249;SDS011;43102;52.014;-0.680;2023-02-28T01:50:02;7.00;;;4.20;;
57249;SDS011;43102;52.014;-0.680;2023-02-28T01:51:04;7.00;;;4.20;;
57249;SDS011;43102;52.014;-0.680;2023-02-28T01:52:00;7.00;;;4.20;;
57249;SDS011;43102;52.014;-0.680;2023-02-28T01:53:04;7.00;;;4.20;;
57249;SDS011;43102;52.014;-0.680;2023-02-28T01:54:07;7.00;;;4.20;;
57249;SDS011;43102;52.014;-0.680;2023-02-28T01:55:02;7.00;;;4.20;;
57249;SDS011;43102;52.014;-0.680;2023-02-28T01:56:06;7.00;;;4.20;;
57249;SDS011;43102;52.014;-0.680;2023-02-28T01:57:03;7.00;;;4.20;;
57249;SDS011;43102;52.014;-0.680;2023-02-28T01:58:02;7.00;;;4.20;;
57249;SDS011;43102;52.014;-0.680;2023-02-28T01:59:00;7.00;;;4.20;;
57249;SDS011;43102;52.014;-0.680;2023-02-28T02:00:06;7.00;;;4.20;;
57249;SDS011;43102;52.014;-0.680;2023-02-28T02:01:02;7.00;;;4.20;;
57249;SDS011;43102;52.014;-0.680;2023-02-28T02:02:02;7.00;;;4.20;;
57249;SDS011;43102;52.014;-0.680;2023-02-28T02:03:06;7.00;;;4.20;;
57249;SDS011;43102;52.014;-0.680;2023-02-28T02:04:02;7.00;;;4.20;;
57249;SDS011;43102;52.014;-0.680;2023-02-28T02:05:12;7.00;;;4.20;;
57249;SDS011;43102;52.014;-0.680;2023-02-28T02:06:02;7.00;;;4.20;;
57249;SDS011;43102;52.014;-0.680;2023-02-28T02:07:00;7.00;;;4.20;;
57249;SDS011;43102;52.014;-0.680;2023-02-28T02:08:05;7.00;;;4.20;;
57249;SDS011;43102;52.014;-0.680;2023-02-28T02:09:00;7.00;;;4.20;;
57249;SDS011;43102;52.014;-0.680;2023-02-28T02:10:05;8.10;;;4.00;;
57249;SDS011;43102;52.014;-0.680;2023-02-28T02:11:01;8.10;;;4.00;;
57249;SDS011;43102;52.014;-0.680;2023-02-28T02:12:12;8.10;;;4.00;;
57249;SDS011;43102;52.014;-0.680;2023-02-28T02:15:11;8.10;;;4.00;;
57249;SDS011;43102;52.014;-0.680;2023-02-28T02:16:28;8.10;;;4.00;;
57249;SDS011;43102;52.014;-0.680;2023-02-28T02:17:09;8.10;;;4.00;;
57249;SDS011;43102;52.014;-0.680;2023-02-28T02:20:16;8.10;;;4.00;;
57249;SDS011;43102;52.014;-0.680;2023-02-28T02:22:07;8.10;;;4.00;;
57249;SDS011;43102;52.014;-0.680;2023-02-28T02:24:29;8.10;;;4.00;;
57249;SDS011;43102;52.014;-0.680;2023-02-28T02:26:12;8.10;;;4.00;;
57249;SDS011;43102;52.014;-0.680;2023-02-28T02:27:20;8.10;;;4.00;;
57249;SDS011;43102;52.014;-0.680;2023-02-28T02:31:14;8.10;;;4.00;;
57249;SDS011;43102;52.014;-0.680;2023-02-28T02:32:28;8.10;;;4.00;;
57249;SDS011;43102;52.014;-0.680;2023-02-28T02:33:23;8.10;;;4.00;;
57249;SDS011;43102;52.014;-0.680;2023-02-28T02:35:20;8.10;;;4.00;;
57249;SDS011;43102;52.014;-0.680;2023-02-28T02:36:04;8.10;;;4.00;;
57249;SDS011;43102;52.014;-0.680;2023-02-28T02:37:09;8.10;;;4.00;;
57249;SDS011;43102;52.014;-0.680;2023-02-28T02:40:10;7.80;;;5.00;;
57249;SDS011;43102;52.014;-0.680;2023-02-28T02:41:08;7.80;;;5.00;;
57249;SDS011;43102;52.014;-0.680;2023-02-28T02:42:03;7.80;;;5.00;;
57249;SDS011;43102;52.014;-0.680;2023-02-28T02:43:09;7.80;;;5.00;;
57249;SDS011;43102;52.014;-0.680;2023-02-28T02:44:11;7.80;;;5.00;;
57249;SDS011;43102;52.014;-0.680;2023-02-28T02:45:05;7.80;;;5.00;;
57249;SDS011;43102;52.014;-0.680;2023-02-28T02:46:06;7.80;;;5.00;;
57249;SDS011;43102;52.014;-0.680;2023-02-28T02:47:07;7.80;;;5.00;;
57249;SDS011;43102;52.014;-0.680;2023-02-28T02:48:01;7.80;;;5.00;;
57249;SDS011;43102;52.014;-0.680;2023-02-28T02:49:05;7.80;;;5.00;;
57249;SDS011;43102;52.014;-0.680;2023-02-28T02:50:04;7.80;;;5.00;;
57249;SDS011;43102;52.014;-0.680;2023-02-28T02:51:05;7.80;;;5.00;;
57249;SDS011;43102;52.014;-0.680;2023-02-28T02:52:04;7.80;;;5.00;;
57249;SDS011;43102;52.014;-0.680;2023-02-28T02:53:02;7.80;;;5.00;;
57249;SDS011;43102;52.014;-0.680;2023-02-28T02:54:05;7.80;;;5.00;;
57249;SDS011;43102;52.014;-0.680;2023-02-28T02:55:02;7.80;;;5.00;;
57249;SDS011;43102;52.014;-0.680;2023-02-28T02:56:02;7.80;;;5.00;;
57249;SDS011;43102;52.014;-0.680;2023-02-28T02:57:05;7.80;;;5.00;;
57249;SDS011;43102;52.014;-0.680;2023-02-28T02:58:04;7.80;;;5.00;;
57249;SDS011;43102;52.014;-0.680;2023-02-28T02:59:04;7.80;;;5.00;;
57249;SDS011;43102;52.014;-0.680;2023-02-28T03:00:02;7.80;;;5.00;;
57249;SDS011;43102;52.014;-0.680;2023-02-28T03:01:02;7.80;;;5.00;;
57249;SDS011;43102;52.014;-0.680;2023-02-28T03:02:04;7.80;;;5.00;;
57249;SDS011;43102;52.014;-0.680;2023-02-28T03:03:01;7.80;;;5.00;;
57249;SDS011;43102;52.014;-0.680;2023-02-28T03:04:05;7.80;;;5.00;;
57249;SDS011;43102;52.014;-0.680;2023-02-28T03:05:04;7.80;;;5.00;;
57249;SDS011;43102;52.014;-0.680;2023-02-28T03:06:01;7.80;;;5.00;;
57249;SDS011;43102;52.014;-0.680;2023-02-28T03:07:00;7.80;;;5.00;;
57249;SDS011;43102;52.014;-0.680;2023-02-28T03:08:04;7.80;;;5.00;;
57249;SDS011;43102;52.014;-0.680;2023-02-28T03:09:00;7.80;;;5.00;;
57249;SDS011;43102;52.014;-0.680;2023-02-28T03:10:01;7.90;;;5.10;;
57249;SDS011;43102;52.014;-0.680;2023-02-28T03:11:02;7.90;;;5.10;;
57249;SDS011;43102;52.014;-0.680;2023-02-28T03:12:00;7.90;;;5.10;;
57249;SDS011;43102;52.014;-0.680;2023-02-28T03:13:09;7.90;;;5.10;;
57249;SDS011;43102;52.014;-0.680;2023-02-28T03:14:15;7.90;;;5.10;;
57249;SDS011;43102;52.014;-0.680;2023-02-28T03:15:11;7.90;;;5.10;;
57249;SDS011;43102;52.014;-0.680;2023-02-28T03:17:13;7.90;;;5.10;;
57249;SDS011;43102;52.014;-0.680;2023-02-28T03:18:06;7.90;;;5.10;;
57249;SDS011;43102;52.014;-0.680;2023-02-28T03:19:11;7.90;;;5.10;;
57249;SDS011;43102;52.014;-0.680;2023-02-28T03:20:16;7.90;;;5.10;;
57249;SDS011;43102;52.014;-0.680;2023-02-28T03:21:11;7.90;;;5.10;;
57249;SDS011;43102;52.014;-0.680;2023-02-28T03:22:09;7.90;;;5.10;;
57249;SDS011;43102;52.014;-0.680;2023-02-28T03:23:10;7.90;;;5.10;;
57249;SDS011;43102;52.014;-0.680;2023-02-28T03:24:08;7.90;;;5.10;;
57249;SDS011;43102;52.014;-0.680;2023-02-28T03:26:16;7.90;;;5.10;;
57249;SDS011;43102;52.014;-0.680;2023-02-28T03:27:13;7.90;;;5.10;;
57249;SDS011;43102;52.014;-0.680;2023-02-28T03:29:05;7.90;;;5.10;;
57249;SDS011;43102;52.014;-0.680;2023-02-28T03:30:04;7.90;;;5.10;;
57249;SDS011;43102;52.014;-0.680;2023-02-28T03:31:10;7.90;;;5.10;;
57249;SDS011;43102;52.014;-0.680;2023-02-28T03:32:08;7.90;;;5.10;;
57249;SDS011;43102;52.014;-0.680;2023-02-28T03:33:08;7.90;;;5.10;;
57249;SDS011;43102;52.014;-0.680;2023-02-28T03:34:06;7.90;;;5.10;;
57249;SDS011;43102;52.014;-0.680;2023-02-28T03:35:07;7.90;;;5.10;;
57249;SDS011;43102;52.014;-0.680;2023-02-28T03:36:04;7.90;;;5.10;;
57249;SDS011;43102;52.014;-0.680;2023-02-28T03:37:05;7.90;;;5.10;;
57249;SDS011;43102;52.014;-0.680;2023-02-28T03:38:05;7.90;;;5.10;;
57249;SDS011;43102;52.014;-0.680;2023-02-28T03:39:07;7.90;;;5.10;;
57249;SDS011;43102;52.014;-0.680;2023-02-28T03:40:07;8.70;;;5.50;;
57249;SDS011;43102;52.014;-0.680;2023-02-28T03:42:04;8.70;;;5.50;;
57249;SDS011;43102;52.014;-0.680;2023-02-28T03:43:04;8.70;;;5.50;;
57249;SDS011;43102;52.014;-0.680;2023-02-28T03:44:05;8.70;;;5.50;;
57249;SDS011;43102;52.014;-0.680;2023-02-28T03:45:04;8.70;;;5.50;;
57249;SDS011;43102;52.014;-0.680;2023-02-28T03:46:05;8.70;;;5.50;;
57249;SDS011;43102;52.014;-0.680;2023-02-28T03:47:06;8.70;;;5.50;;
57249;SDS011;43102;52.014;-0.680;2023-02-28T03:48:13;8.70;;;5.50;;
57249;SDS011;43102;52.014;-0.680;2023-02-28T03:49:07;8.70;;;5.50;;
57249;SDS011;43102;52.014;-0.680;2023-02-28T03:50:05;8.70;;;5.50;;
57249;SDS011;43102;52.014;-0.680;2023-02-28T03:51:01;8.70;;;5.50;;
57249;SDS011;43102;52.014;-0.680;2023-02-28T03:52:02;8.70;;;5.50;;
57249;SDS011;43102;52.014;-0.680;2023-02-28T03:53:06;8.70;;;5.50;;
57249;SDS011;43102;52.014;-0.680;2023-02-28T03:54:05;8.70;;;5.50;;
57249;SDS011;43102;52.014;-0.680;2023-02-28T03:55:07;8.70;;;5.50;;
57249;SDS011;43102;52.014;-0.680;2023-02-28T03:56:13;8.70;;;5.50;;
57249;SDS011;43102;52.014;-0.680;2023-02-28T03:57:07;8.70;;;5.50;;
57249;SDS011;43102;52.014;-0.680;2023-02-28T03:58:03;8.70;;;5.50;;
57249;SDS011;43102;52.014;-0.680;2023-02-28T03:59:10;8.70;;;5.50;;
57249;SDS011;43102;52.014;-0.680;2023-02-28T04:00:06;8.70;;;5.50;;
57249;SDS011;43102;52.014;-0.680;2023-02-28T04:01:09;8.70;;;5.50;;
57249;SDS011;43102;52.014;-0.680;2023-02-28T04:02:01;8.70;;;5.50;;
57249;SDS011;43102;52.014;-0.680;2023-02-28T04:03:00;8.70;;;5.50;;
57249;SDS011;43102;52.014;-0.680;2023-02-28T04:04:01;8.70;;;5.50;;
57249;SDS011;43102;52.014;-0.680;2023-02-28T04:05:00;8.70;;;5.50;;
57249;SDS011;43102;52.014;-0.680;2023-02-28T04:06:00;8.70;;;5.50;;
57249;SDS011;43102;52.014;-0.680;2023-02-28T04:07:02;8.70;;;5.50;;
57249;SDS011;43102;52.014;-0.680;2023-02-28T04:08:06;8.70;;;5.50;;
57249;SDS011;43102;52.014;-0.680;2023-02-28T04:09:01;8.70;;;5.50;;
57249;SDS011;43102;52.014;-0.680;2023-02-28T04:10:00;8.70;;;5.50;;
57249;SDS011;43102;52.014;-0.680;2023-02-28T04:11:03;8.80;;;6.40;;
57249;SDS011;43102;52.014;-0.680;2023-02-28T04:12:00;8.80;;;6.40;;
57249;SDS011;43102;52.014;-0.680;2023-02-28T04:13:00;8.80;;;6.40;;
57249;SDS011;43102;52.014;-0.680;2023-02-28T04:14:02;8.80;;;6.40;;
57249;SDS011;43102;52.014;-0.680;2023-02-28T04:15:00;8.80;;;6.40;;
57249;SDS011;43102;52.014;-0.680;2023-02-28T04:16:00;8.80;;;6.40;;
57249;SDS011;43102;52.014;-0.680;2023-02-28T04:17:00;8.80;;;6.40;;
57249;SDS011;43102;52.014;-0.680;2023-02-28T04:18:00;8.80;;;6.40;;
57249;SDS011;43102;52.014;-0.680;2023-02-28T04:19:02;8.80;;;6.40;;
57249;SDS011;43102;52.014;-0.680;2023-02-28T04:20:00;8.80;;;6.40;;
57249;SDS011;43102;52.014;-0.680;2023-02-28T04:21:00;8.80;;;6.40;;
57249;SDS011;43102;52.014;-0.680;2023-02-28T04:22:00;8.80;;;6.40;;
57249;SDS011;43102;52.014;-0.680;2023-02-28T04:23:00;8.80;;;6.40;;
57249;SDS011;43102;52.014;-0.680;2023-02-28T04:24:00;8.80;;;6.40;;
57249;SDS011;43102;52.014;-0.680;2023-02-28T04:25:00;8.80;;;6.40;;
57249;SDS011;43102;52.014;-0.680;2023-02-28T04:26:00;8.80;;;6.40;;
57249;SDS011;43102;52.014;-0.680;2023-02-28T04:27:00;8.80;;;6.40;;
57249;SDS011;43102;52.014;-0.680;2023-02-28T04:28:00;8.80;;;6.40;;
57249;SDS011;43102;52.014;-0.680;2023-02-28T04:29:01;8.80;;;6.40;;
57249;SDS011;43102;52.014;-0.680;2023-02-28T04:30:00;8.80;;;6.40;;
57249;SDS011;43102;52.014;-0.680;2023-02-28T04:31:03;8.80;;;6.40;;
57249;SDS011;43102;52.014;-0.680;2023-02-28T04:32:01;8.80;;;6.40;;
57249;SDS011;43102;52.014;-0.680;2023-02-28T04:33:00;8.80;;;6.40;;
57249;SDS011;43102;52.014;-0.680;2023-02-28T04:34:00;8.80;;;6.40;;
57249;SDS011;43102;52.014;-0.680;2023-02-28T04:35:00;8.80;;;6.40;;
57249;SDS011;43102;52.014;-0.680;2023-02-28T04:36:05;8.80;;;6.40;;
57249;SDS011;43102;52.014;-0.680;2023-02-28T04:37:11;8.80;;;6.40;;
57249;SDS011;43102;52.014;-0.680;2023-02-28T04:38:00;8.80;;;6.40;;
57249;SDS011;43102;52.014;-0.680;2023-02-28T04:39:00;8.80;;;6.40;;
57249;SDS011;43102;52.014;-0.680;2023-02-28T04:40:01;8.80;;;6.40;;
57249;SDS011;43102;52.014;-0.680;2023-02-28T04:41:01;10.90;;;7.20;;
57249;SDS011;43102;52.014;-0.680;2023-02-28T04:42:00;10.90;;;7.20;;
57249;SDS011;43102;52.014;-0.680;2023-02-28T04:43:00;10.90;;;7.20;;
57249;SDS011;43102;52.014;-0.680;2023-02-28T04:44:00;10.90;;;7.20;;
57249;SDS011;43102;52.014;-0.680;2023-02-28T04:45:00;10.90;;;7.20;;
57249;SDS011;43102;52.014;-0.680;2023-02-28T04:46:02;10.90;;;7.20;;
57249;SDS011;43102;52.014;-0.680;2023-02-28T04:47:00;10.90;;;7.20;;
57249;SDS011;43102;52.014;-0.680;2023-02-28T04:48:00;10.90;;;7.20;;
57249;SDS011;43102;52.014;-0.680;2023-02-28T04:49:00;10.90;;;7.20;;
57249;SDS011;43102;52.014;-0.680;2023-02-28T04:50:00;10.90;;;7.20;;
57249;SDS011;43102;52.014;-0.680;2023-02-28T04:51:01;10.90;;;7.20;;
57249;SDS011;43102;52.014;-0.680;2023-02-28T04:52:00;10.90;;;7.20;;
57249;SDS011;43102;52.014;-0.680;2023-02-28T04:53:00;10.90;;;7.20;;
57249;SDS011;43102;52.014;-0.680;2023-02-28T04:54:00;10.90;;;7.20;;
57249;SDS011;43102;52.014;-0.680;2023-02-28T04:55:00;10.90;;;7.20;;
57249;SDS011;43102;52.014;-0.680;2023-02-28T04:56:01;10.90;;;7.20;;
57249;SDS011;43102;52.014;-0.680;2023-02-28T04:57:01;10.90;;;7.20;;
57249;SDS011;43102;52.014;-0.680;2023-02-28T04:58:00;10.90;;;7.20;;
57249;SDS011;43102;52.014;-0.680;2023-02-28T04:59:00;10.90;;;7.20;;
57249;SDS011;43102;52.014;-0.680;2023-02-28T05:00:00;10.90;;;7.20;;
57249;SDS011;43102;52.014;-0.680;2023-02-28T05:01:03;10.90;;;7.20;;
57249;SDS011;43102;52.014;-0.680;2023-02-28T05:02:06;10.90;;;7.20;;
57249;SDS011;43102;52.014;-0.680;2023-02-28T05:03:00;10.90;;;7.20;;
57249;SDS011;43102;52.014;-0.680;2023-02-28T05:04:03;10.90;;;7.20;;
57249;SDS011;43102;52.014;-0.680;2023-02-28T05:05:00;10.90;;;7.20;;
57249;SDS011;43102;52.014;-0.680;2023-02-28T05:06:00;10.90;;;7.20;;
57249;SDS011;43102;52.014;-0.680;2023-02-28T05:07:01;10.90;;;7.20;;
57249;SDS011;43102;52.014;-0.680;2023-02-28T05:08:00;10.90;;;7.20;;
57249;SDS011;43102;52.014;-0.680;2023-02-28T05:09:01;10.90;;;7.20;;
57249;SDS011;43102;52.014;-0.680;2023-02-28T05:10:00;10.90;;;7.20;;
57249;SDS011;43102;52.014;-0.680;2023-02-28T05:11:01;13.20;;;8.10;;
57249;SDS011;43102;52.014;-0.680;2023-02-28T05:12:00;13.20;;;8.10;;
57249;SDS011;43102;52.014;-0.680;2023-02-28T05:13:00;13.20;;;8.10;;
57249;SDS011;43102;52.014;-0.680;2023-02-28T05:14:03;13.20;;;8.10;;
57249;SDS011;43102;52.014;-0.680;2023-02-28T05:15:01;13.20;;;8.10;;
57249;SDS011;43102;52.014;-0.680;2023-02-28T05:16:00;13.20;;;8.10;;
57249;SDS011;43102;52.014;-0.680;2023-02-28T05:17:00;13.20;;;8.10;;
57249;SDS011;43102;52.014;-0.680;2023-02-28T05:18:00;13.20;;;8.10;;
57249;SDS011;43102;52.014;-0.680;2023-02-28T05:19:00;13.20;;;8.10;;
57249;SDS011;43102;52.014;-0.680;2023-02-28T05:20:11;13.20;;;8.10;;
57249;SDS011;43102;52.014;-0.680;2023-02-28T05:21:02;13.20;;;8.10;;
57249;SDS011;43102;52.014;-0.680;2023-02-28T05:22:00;13.20;;;8.10;;
57249;SDS011;43102;52.014;-0.680;2023-02-28T05:23:01;13.20;;;8.10;;
57249;SDS011;43102;52.014;-0.680;2023-02-28T05:24:03;13.20;;;8.10;;
57249;SDS011;43102;52.014;-0.680;2023-02-28T05:25:00;13.20;;;8.10;;
57249;SDS011;43102;52.014;-0.680;2023-02-28T05:26:00;13.20;;;8.10;;
57249;SDS011;43102;52.014;-0.680;2023-02-28T05:27:00;13.20;;;8.10;;
57249;SDS011;43102;52.014;-0.680;2023-02-28T05:28:00;13.20;;;8.10;;
57249;SDS011;43102;52.014;-0.680;2023-02-28T05:29:00;13.20;;;8.10;;
57249;SDS011;43102;52.014;-0.680;2023-02-28T05:30:03;13.20;;;8.10;;
57249;SDS011;43102;52.014;-0.680;2023-02-28T05:31:00;13.20;;;8.10;;
57249;SDS011;43102;52.014;-0.680;2023-02-28T05:32:00;13.20;;;8.10;;
57249;SDS011;43102;52.014;-0.680;2023-02-28T05:33:00;13.20;;;8.10;;
57249;SDS011;43102;52.014;-0.680;2023-02-28T05:34:01;13.20;;;8.10;;
57249;SDS011;43102;52.014;-0.680;2023-02-28T05:35:00;13.20;;;8.10;;
57249;SDS011;43102;52.014;-0.680;2023-02-28T05:36:00;13.20;;;8.10;;
57249;SDS011;43102;52.014;-0.680;2023-02-28T05:37:00;13.20;;;8.10;;
57249;SDS011;43102;52.014;-0.680;2023-02-28T05:38:00;13.20;;;8.10;;
57249;SDS011;43102;52.014;-0.680;2023-02-28T05:39:00;13.20;;;8.10;;
57249;SDS011;43102;52.014;-0.680;2023-02-28T05:40:01;13.20;;;8.10;;
57249;SDS011;43102;52.014;-0.680;2023-02-28T05:41:04;8.90;;;6.00;;
57249;SDS011;43102;52.014;-0.680;2023-02-28T05:42:00;8.90;;;6.00;;
57249;SDS011;43102;52.014;-0.680;2023-02-28T05:43:01;8.90;;;6.00;;
57249;SDS011;43102;52.014;-0.680;2023-02-28T05:44:00;8.90;;;6.00;;
57249;SDS011;43102;52.014;-0.680;2023-02-28T05:45:00;8.90;;;6.00;;
57249;SDS011;43102;52.014;-0.680;2023-02-28T05:46:03;8.90;;;6.00;;
57249;SDS011;43102;52.014;-0.680;2023-02-28T05:47:00;8.90;;;6.00;;
57249;SDS011;43102;52.014;-0.680;2023-02-28T05:48:00;8.90;;;6.00;;
57249;SDS011;43102;52.014;-0.680;2023-02-28T05:49:01;8.90;;;6.00;;
57249;SDS011;43102;52.014;-0.680;2023-02-28T05:50:00;8.90;;;6.00;;
57249;SDS011;43102;52.014;-0.680;2023-02-28T05:51:00;8.90;;;6.00;;
57249;SDS011;43102;52.014;-0.680;2023-02-28T05:52:00;8.90;;;6.00;;
57249;SDS011;43102;52.014;-0.680;2023-02-28T05:53:00;8.90;;;6.00;;
57249;SDS011;43102;52.014;-0.680;2023-02-28T05:54:01;8.90;;;6.00;;
57249;SDS011;43102;52.014;-0.680;2023-02-28T05:55:00;8.90;;;6.00;;
57249;SDS011;43102;52.014;-0.680;2023-02-28T05:56:00;8.90;;;6.00;;
57249;SDS011;43102;52.014;-0.680;2023-02-28T05:57:00;8.90;;;6.00;;
57249;SDS011;43102;52.014;-0.680;2023-02-28T05:58:00;8.90;;;6.00;;
57249;SDS011;43102;52.014;-0.680;2023-02-28T05:59:00;8.90;;;6.00;;
57249;SDS011;43102;52.014;-0.680;2023-02-28T06:00:00;8.90;;;6.00;;
57249;SDS011;43102;52.014;-0.680;2023-02-28T06:01:18;8.90;;;6.00;;
57249;SDS011;43102;52.014;-0.680;2023-02-28T06:02:00;8.90;;;6.00;;
57249;SDS011;43102;52.014;-0.680;2023-02-28T06:03:01;8.90;;;6.00;;
57249;SDS011;43102;52.014;-0.680;2023-02-28T06:04:02;8.90;;;6.00;;
57249;SDS011;43102;52.014;-0.680;2023-02-28T06:05:00;8.90;;;6.00;;
57249;SDS011;43102;52.014;-0.680;2023-02-28T06:06:00;8.90;;;6.00;;
57249;SDS011;43102;52.014;-0.680;2023-02-28T06:07:01;8.90;;;6.00;;
57249;SDS011;43102;52.014;-0.680;2023-02-28T06:08:00;8.90;;;6.00;;
57249;SDS011;43102;52.014;-0.680;2023-02-28T06:09:00;8.90;;;6.00;;
57249;SDS011;43102;52.014;-0.680;2023-02-28T06:10:00;8.90;;;6.00;;
57249;SDS011;43102;52.014;-0.680;2023-02-28T06:11:03;8.30;;;5.30;;